Time;durP1;ratioP1;P1;durP2;ratioP2;P2;SDS_P1;SDS_P2;PMS_P1;PMS_P2;Temp;Humidity;BMP_temperature;BMP_pressure;BME280_temperature;BME280_humidity;BME280_pressure;Samples;Min_cycle;Max_cycle;Signal;HPM_P1;HPM_P2
2021/12/25 16:21:53;;;;;;;1.08;1.08;;;;;;;-2.29;100.00;101042.72;6251899;22;20116;-76
2021/12/25 16:24:19;;;;;;;1.83;1.73;;;;;;;-2.23;100.00;101044.50;6249017;22;20016;-77
2021/12/25 16:26:44;;;;;;;1.20;1.20;;;;;;;-2.29;100.00;101047.03;6247476;22;20012;-77
2021/12/25 16:29:10;;;;;;;1.33;1.30;;;;;;;-2.32;100.00;101049.59;6246812;22;20374;-77
2021/12/25 16:31:37;;;;;;;1.05;1.05;;;;;;;-2.35;100.00;101052.16;6247462;22;20010;-77
2021/12/25 16:34:06;;;;;;;1.10;1.10;;;;;;;-2.37;100.00;101057.34;6247627;22;20007;-78
2021/12/25 16:36:34;;;;;;;1.10;1.10;;;;;;;-2.46;100.00;101057.22;6247072;22;20004;-77
2021/12/25 16:39:02;;;;;;;1.20;1.20;;;;;;;-2.41;100.00;101055.53;6247331;22;20000;-77
2021/12/25 16:41:29;;;;;;;1.10;1.10;;;;;;;-2.46;100.00;101056.34;6247440;22;20047;-77
2021/12/25 16:43:54;;;;;;;1.15;1.15;;;;;;;-2.46;100.00;101052.00;6247336;22;20380;-77
2021/12/25 16:46:20;;;;;;;1.02;1.02;;;;;;;-2.49;100.00;101046.78;6247446;23;20004;-77
2021/12/25 16:48:46;;;;;;;1.10;1.10;;;;;;;-2.53;100.00;101042.41;6247152;22;20008;-76
2021/12/25 16:51:13;;;;;;;1.10;1.10;;;;;;;-2.49;100.00;101041.56;6246445;23;20004;-77
2021/12/25 16:53:39;;;;;;;1.00;1.00;;;;;;;-2.55;100.00;101048.44;6245812;23;20004;-78
2021/12/25 16:56:04;;;;;;;1.05;1.05;;;;;;;-2.54;100.00;101056.25;6246387;22;20012;-78
2021/12/25 16:58:30;;;;;;;1.10;1.10;;;;;;;-2.58;100.00;101054.47;6247351;22;20000;-78
2021/12/25 17:00:56;;;;;;;1.10;1.10;;;;;;;-2.65;100.00;101054.38;6247721;22;20031;-78
2021/12/25 17:03:21;;;;;;;1.10;1.10;;;;;;;-2.62;100.00;101051.81;6246801;22;20082;-79
2021/12/25 17:05:49;;;;;;;1.10;1.10;;;;;;;-2.68;100.00;101050.00;6247171;22;20011;-77
2021/12/25 17:08:15;;;;;;;1.00;1.00;;;;;;;-2.63;100.00;101045.72;6247522;22;20000;-77
2021/12/25 17:10:40;;;;;;;1.10;1.10;;;;;;;-2.70;100.00;101050.81;6247440;22;20026;-77
2021/12/25 17:13:06;;;;;;;1.10;1.10;;;;;;;-2.72;100.00;101031.72;6247147;22;20381;-76
2021/12/25 17:15:34;;;;;;;1.00;1.00;;;;;;;-2.70;100.00;101028.31;6246484;22;20042;-77
2021/12/25 17:18:00;;;;;;;1.10;1.10;;;;;;;-2.71;100.00;101031.75;6247691;22;20012;-79
2021/12/25 17:20:30;;;;;;;1.10;1.10;;;;;;;-2.61;100.00;101033.63;6246786;22;20328;-77
2021/12/25 17:22:55;;;;;;;1.00;1.00;;;;;;;-2.67;100.00;101030.06;6247444;22;20066;-77
2021/12/25 17:25:21;;;;;;;1.10;1.10;;;;;;;-2.69;100.00;101026.56;6246799;22;20012;-77
2021/12/25 17:27:49;;;;;;;2.00;1.90;;;;;;;-2.76;100.00;101035.16;6248904;22;19984;-77
2021/12/25 17:30:19;;;;;;;1.45;1.35;;;;;;;-2.75;100.00;101034.28;6248903;23;20015;-77
2021/12/25 17:32:45;;;;;;;1.67;1.58;;;;;;;-2.81;100.00;101032.50;6250130;22;20043;-77
2021/12/25 17:35:12;;;;;;;0.98;0.98;;;;;;;-2.87;100.00;101031.53;6248070;22;20097;-77
2021/12/25 17:37:37;;;;;;;1.00;1.00;;;;;;;-2.90;100.00;101029.78;6249030;22;20000;-78
2021/12/25 17:40:09;;;;;;;1.25;1.23;;;;;;;-2.90;100.00;101036.69;6248316;22;20004;-77
2021/12/25 17:42:36;;;;;;;1.23;1.20;;;;;;;-2.91;100.00;101029.72;6249809;22;20015;-77
2021/12/25 17:45:03;;;;;;;1.33;1.30;;;;;;;-2.89;100.00;101028.91;6249497;22;20083;-77
2021/12/25 17:47:29;;;;;;;1.20;1.20;;;;;;;-2.93;100.00;101034.03;6249103;22;20004;-77
2021/12/25 17:49:54;;;;;;;1.95;1.85;;;;;;;-2.86;100.00;101035.88;6249056;22;20011;-77
2021/12/25 17:52:20;;;;;;;1.40;1.30;;;;;;;-2.95;100.00;101039.22;6249295;22;20008;-77
2021/12/25 17:54:46;;;;;;;1.17;1.17;;;;;;;-2.93;100.00;101041.84;6249170;23;20075;-77
2021/12/25 17:57:11;;;;;;;291.70;247.70;;;;;;;-2.96;100.00;101045.25;6248580;22;20316;-77
2021/12/25 17:59:36;;;;;;;1.10;1.10;;;;;;;-2.93;100.00;101040.09;6248622;22;20024;-77
2021/12/25 18:02:04;;;;;;;1.50;1.40;;;;;;;-3.04;100.00;101041.66;6248467;22;20053;-77
2021/12/25 18:04:29;;;;;;;1.20;1.20;;;;;;;-2.97;100.00;101040.03;6248652;22;20012;-77
2021/12/25 18:06:55;;;;;;;1.08;1.08;;;;;;;-2.98;100.00;101040.91;6249217;22;20008;-77
2021/12/25 18:09:21;;;;;;;1.00;1.00;;;;;;;-2.99;100.00;101040.00;6248334;23;20018;-77
2021/12/25 18:11:46;;;;;;;1.17;1.17;;;;;;;-3.03;100.00;101040.81;6248380;22;20032;-77
2021/12/25 18:14:12;;;;;;;1.10;1.10;;;;;;;-3.06;100.00;101040.78;6248310;22;20050;-77
2021/12/25 18:16:37;;;;;;;1.10;1.10;;;;;;;-3.06;100.00;101045.09;6249059;22;20321;-77
2021/12/25 18:19:02;;;;;;;1.10;1.10;;;;;;;-3.10;100.00;101053.72;6248413;23;20004;-77
2021/12/25 18:21:28;;;;;;;1.60;1.50;;;;;;;-3.16;100.00;101044.97;6249338;22;20015;-77
2021/12/25 18:23:53;;;;;;;1.58;1.48;;;;;;;-3.23;100.00;101042.25;6248294;22;20012;-77
2021/12/25 18:26:19;;;;;;;1.52;1.42;;;;;;;-3.16;100.00;101041.50;6248106;22;20004;-78
2021/12/25 18:28:45;;;;;;;1.35;1.30;;;;;;;-3.16;100.00;101051.88;6248283;22;20383;-78
2021/12/25 18:31:13;;;;;;;1.10;1.10;;;;;;;-3.20;100.00;101055.28;6248916;22;20075;-78
2021/12/25 18:33:39;;;;;;;1.50;1.40;;;;;;;-3.19;100.00;101067.41;6248422;22;20030;-78
2021/12/25 18:36:05;;;;;;;1.10;1.10;;;;;;;-3.22;100.00;101051.78;6248539;23;20011;-78
2021/12/25 18:38:31;;;;;;;1.05;1.05;;;;;;;-3.29;100.00;101058.59;6248002;22;20004;-77
2021/12/25 18:40:56;;;;;;;1.10;1.10;;;;;;;-3.29;100.00;101061.19;6249116;22;20040;-77
2021/12/25 18:43:22;;;;;;;1.10;1.10;;;;;;;-3.31;100.00;101057.69;6248192;23;20080;-77
2021/12/25 18:45:48;;;;;;;1.33;1.30;;;;;;;-3.32;100.00;101062.88;6248790;22;20000;-77
2021/12/25 18:48:13;;;;;;;1.60;1.50;;;;;;;-3.25;100.00;101064.72;6247106;22;20015;-77
2021/12/25 18:50:39;;;;;;;1.27;1.17;;;;;;;-3.30;100.00;101076.75;6248311;22;20000;-77
2021/12/25 18:53:05;;;;;;;1.10;1.10;;;;;;;-3.32;100.00;101066.34;6248309;22;20000;-77
2021/12/25 18:55:31;;;;;;;1.10;1.10;;;;;;;-3.39;100.00;101063.63;6248131;22;20000;-77
2021/12/25 18:58:01;;;;;;;1.15;1.15;;;;;;;-3.43;100.00;101075.66;6248414;22;20328;-77
2021/12/25 19:00:30;;;;;;;;;;;;;;;-3.34;100.00;101073.22;6248702;22;20061;-77
2021/12/25 19:02:56;;;;;;;1.20;1.20;;;;;;;-3.35;100.00;101068.88;6248073;23;19908;-77
2021/12/25 19:05:21;;;;;;;1.23;1.23;;;;;;;-3.40;100.00;101075.72;6247628;23;20014;-77
2021/12/25 19:07:47;;;;;;;1.73;1.63;;;;;;;-3.41;100.00;101063.59;6248660;22;20345;-79
2021/12/25 19:10:14;;;;;;;1.20;1.20;;;;;;;-3.48;100.00;101071.22;6248443;22;20008;-78
2021/12/25 19:12:41;;;;;;;1.60;1.50;;;;;;;-3.51;100.00;101072.06;6248532;22;20016;-78
2021/12/25 19:15:08;;;;;;;1.20;1.20;;;;;;;-3.51;100.00;101060.81;6247779;22;20139;-78
2021/12/25 19:17:34;;;;;;;1.42;1.33;;;;;;;-3.44;100.00;101068.75;6248394;22;20008;-78
2021/12/25 19:20:00;;;;;;;1.45;1.35;;;;;;;-3.47;100.00;101066.06;6248585;22;20039;-78
2021/12/25 19:22:26;;;;;;;1.80;1.70;;;;;;;-3.46;100.00;101061.75;6247258;23;20079;-78
2021/12/25 19:24:52;;;;;;;1.65;1.55;;;;;;;-3.51;100.00;101068.59;6248393;23;20023;-78
2021/12/25 19:27:17;;;;;;;1.23;1.23;;;;;;;-3.52;100.00;101059.06;6247035;22;20122;-79
2021/12/25 19:29:43;;;;;;;1.10;1.10;;;;;;;-3.54;100.00;101053.84;6248387;23;19997;-78
2021/12/25 19:32:09;;;;;;;1.20;1.20;;;;;;;-3.54;100.00;101040.88;6248628;22;20000;-78
2021/12/25 19:34:34;;;;;;;1.35;1.27;;;;;;;-3.56;100.00;101034.78;6248222;22;20008;-76
2021/12/25 19:37:00;;;;;;;1.10;1.10;;;;;;;-3.47;100.00;101037.50;6248266;22;20033;-79
2021/12/25 19:39:25;;;;;;;1.30;1.30;;;;;;;-3.57;100.00;101033.03;6247600;22;20493;-76
2021/12/25 19:41:51;;;;;;;1.20;1.20;;;;;;;-3.54;100.00;101029.59;6247614;23;20030;-76
2021/12/25 19:44:17;;;;;;;1.10;1.10;;;;;;;-3.59;100.00;101032.13;6248339;22;20004;-78
2021/12/25 19:46:45;;;;;;;1.40;1.30;;;;;;;-3.63;100.00;101037.25;6248548;22;20047;-78
2021/12/25 19:49:11;;;;;;;1.60;1.50;;;;;;;-3.61;100.00;101043.34;6248245;22;20328;-78
2021/12/25 19:51:37;;;;;;;1.20;1.20;;;;;;;-3.62;100.00;101037.28;6246899;23;20014;-79
2021/12/25 19:54:03;;;;;;;1.75;1.65;;;;;;;-3.62;100.00;101034.66;6246869;23;20428;-77
2021/12/25 19:56:30;;;;;;;1.30;1.20;;;;;;;-3.67;100.00;101027.69;6247680;23;20000;-78
2021/12/25 19:58:56;;;;;;;1.10;1.10;;;;;;;-3.73;100.00;101031.03;6247066;22;20000;-77
2021/12/25 20:01:22;;;;;;;1.30;1.30;;;;;;;-3.77;100.00;101031.81;6247012;22;20008;-78
2021/12/25 20:03:50;;;;;;;1.67;1.58;;;;;;;-3.73;100.00;101036.22;6246658;23;20020;-78
2021/12/25 20:06:19;;;;;;;1.58;1.48;;;;;;;-3.69;100.00;101030.22;6246552;22;20000;-77
2021/12/25 20:08:49;;;;;;;1.60;1.50;;;;;;;-3.72;100.00;101021.53;6247135;22;20039;-75
2021/12/25 20:11:31;;;;;;;1.40;1.30;;;;;;;-3.73;100.00;101010.25;6247236;23;20014;-75
2021/12/25 20:13:58;;;;;;;1.33;1.30;;;;;;;-3.72;100.00;101011.16;6245575;23;20038;-76
2021/12/25 20:16:24;;;;;;;1.20;1.20;;;;;;;-3.74;100.00;101015.44;6246872;23;20427;-76
2021/12/25 20:18:51;;;;;;;1.10;1.10;;;;;;;-3.78;100.00;101022.28;6245734;23;20130;-76
2021/12/25 20:21:18;;;;;;;1.60;1.50;;;;;;;-3.69;100.00;101017.22;6246606;22;20035;-77
2021/12/25 20:23:45;;;;;;;1.45;1.35;;;;;;;-3.75;100.00;101032.69;6246254;23;20012;-76
2021/12/25 20:26:11;;;;;;;1.80;1.70;;;;;;;-3.72;100.00;101032.75;6245643;22;20008;-76
2021/12/25 20:28:38;;;;;;;1.20;1.20;;;;;;;-3.61;100.00;101026.03;6247010;22;20001;-75
2021/12/25 20:31:09;;;;;;;1.20;1.20;;;;;;;-3.49;100.00;101027.97;6246030;23;20042;-75
2021/12/25 20:33:34;;;;;;;2.55;2.20;;;;;;;-3.49;100.00;101026.25;6247416;22;20008;-75
2021/12/25 20:36:01;;;;;;;1.70;1.60;;;;;;;-3.51;100.00;101030.53;6247480;23;20081;-75
2021/12/25 20:38:27;;;;;;;2.75;2.55;;;;;;;-3.51;100.00;101024.47;6247350;23;20011;-75
2021/12/25 20:40:52;;;;;;;1.55;1.45;;;;;;;-3.60;100.00;101025.19;6246469;23;20008;-75
2021/12/25 20:43:23;;;;;;;1.20;1.20;;;;;;;-3.59;100.00;101021.75;6246468;23;20004;-75
2021/12/25 20:45:49;;;;;;;1.95;1.85;;;;;;;-3.69;100.00;101030.22;6247095;22;20004;-74
2021/12/25 20:48:22;;;;;;;1.20;1.20;;;;;;;-3.78;100.00;101021.41;6246164;22;20035;-75
2021/12/25 20:50:52;;;;;;;1.20;1.20;;;;;;;-3.65;100.00;101031.16;6246013;23;20386;-74
2021/12/25 20:53:17;;;;;;;1.40;1.30;;;;;;;-3.43;100.00;101026.34;6247150;23;20009;-74
2021/12/25 20:55:44;;;;;;;1.50;1.40;;;;;;;-3.38;100.00;101029.00;6246443;23;20015;-75
2021/12/25 20:58:09;;;;;;;1.38;1.30;;;;;;;-3.26;100.00;101026.59;6246550;23;20000;-75
2021/12/25 21:00:35;;;;;;;1.10;1.10;;;;;;;-3.12;100.00;101025.97;6247283;22;20000;-76
2021/12/25 21:03:03;;;;;;;1.10;1.10;;;;;;;-3.08;100.00;101023.41;6248500;23;20051;-75
2021/12/25 21:05:30;;;;;;;1.10;1.10;;;;;;;-3.07;100.00;101017.38;6248405;22;20011;-74
2021/12/25 21:07:58;;;;;;;1.10;1.10;;;;;;;-3.10;100.00;101018.19;6247860;23;20059;-75
2021/12/25 21:10:29;;;;;;;1.10;1.10;;;;;;;-3.14;100.00;101014.66;6247709;23;20007;-74
2021/12/25 21:12:56;;;;;;;1.10;1.10;;;;;;;-3.03;100.00;101011.38;6248858;22;20011;-75
2021/12/25 21:15:25;;;;;;;1.27;1.27;;;;;;;-3.01;100.00;101001.88;6247152;22;20024;-75
2021/12/25 21:17:51;;;;;;;1.25;1.23;;;;;;;-3.00;100.00;100998.41;6248264;22;20000;-74
2021/12/25 21:20:17;;;;;;;1.10;1.10;;;;;;;-2.92;100.00;101000.28;6248469;22;20008;-75
2021/12/25 21:22:43;;;;;;;1.00;1.00;;;;;;;-2.91;100.00;101008.94;6247771;22;20012;-75
2021/12/25 21:25:11;;;;;;;1.10;1.10;;;;;;;-2.88;100.00;101006.41;6248446;22;20007;-74
2021/12/25 21:27:37;;;;;;;1.10;1.10;;;;;;;-2.88;100.00;101007.25;6247834;22;20039;-75
2021/12/25 21:30:06;;;;;;;1.10;1.10;;;;;;;-2.80;100.00;101004.75;6248039;22;20031;-75
2021/12/25 21:32:32;;;;;;;1.20;1.20;;;;;;;-2.81;100.00;101000.41;6247350;22;20041;-74
2021/12/25 21:34:58;;;;;;;1.15;1.15;;;;;;;-2.79;100.00;100989.22;6247621;22;20018;-74
2021/12/25 21:37:24;;;;;;;1.42;1.33;;;;;;;-2.84;100.00;100990.00;6247728;22;20015;-74
2021/12/25 21:39:49;;;;;;;1.00;1.00;;;;;;;-2.77;100.00;100990.09;6248081;22;20008;-75
2021/12/25 21:42:15;;;;;;;1.05;1.05;;;;;;;-2.57;100.00;100978.22;6248437;22;20000;-74
2021/12/25 21:44:40;;;;;;;1.00;1.00;;;;;;;-2.60;100.00;100979.91;6248757;22;20424;-75
2021/12/25 21:47:05;;;;;;;1.00;1.00;;;;;;;-2.63;100.00;100987.69;6248037;23;20027;-74
2021/12/25 21:49:32;;;;;;;0.90;0.90;;;;;;;-2.69;100.00;100987.56;6248190;22;20016;-74
2021/12/25 21:51:58;;;;;;;0.90;0.90;;;;;;;-2.49;100.00;100980.91;6248413;23;20544;-75
2021/12/25 21:54:23;;;;;;;1.08;1.08;;;;;;;-2.52;100.00;100991.28;6247840;23;20004;-74
2021/12/25 21:56:49;;;;;;;0.90;0.90;;;;;;;-2.62;100.00;100984.22;6247781;22;20008;-74
2021/12/25 21:59:14;;;;;;;1.00;1.00;;;;;;;-2.56;100.00;100992.97;6248386;22;20088;-75
2021/12/25 22:01:41;;;;;;;0.90;0.90;;;;;;;-2.63;100.00;100992.88;6247371;22;20008;-74
2021/12/25 22:04:12;;;;;;;0.98;0.98;;;;;;;-2.48;100.00;100977.44;6247767;22;20007;-75
2021/12/25 22:06:38;;;;;;;0.90;0.90;;;;;;;-2.58;100.00;100989.47;6248120;22;20004;-75
2021/12/25 22:09:04;;;;;;;1.00;1.00;;;;;;;-2.88;100.00;100968.28;6247249;23;20058;-74
2021/12/25 22:11:30;;;;;;;1.00;1.00;;;;;;;-2.75;100.00;100971.91;6247884;22;20008;-75
2021/12/25 22:13:55;;;;;;;1.20;1.10;;;;;;;-2.73;100.00;100970.22;6246931;22;20031;-75
2021/12/25 22:16:22;;;;;;;1.10;1.10;;;;;;;-2.69;100.00;100969.38;6247199;22;20539;-75
2021/12/25 22:18:47;;;;;;;0.98;0.98;;;;;;;-2.54;100.00;100972.19;6248150;22;20004;-75
2021/12/25 22:21:13;;;;;;;1.13;1.13;;;;;;;-2.62;100.00;100968.63;6247406;22;20358;-75
2021/12/25 22:23:42;;;;;;;0.90;0.90;;;;;;;-2.52;100.00;100958.34;6248349;22;20020;-78
2021/12/25 22:26:08;;;;;;;1.00;1.00;;;;;;;-2.49;100.00;100952.31;6248970;23;20000;-77
2021/12/25 22:28:40;;;;;;;0.80;0.80;;;;;;;-2.61;100.00;100959.94;6248131;22;20047;-77
2021/12/25 22:31:06;;;;;;;1.23;1.23;;;;;;;-2.53;100.00;100960.91;6246054;23;20008;-77
2021/12/25 22:33:31;;;;;;;0.80;0.80;;;;;;;-2.50;100.00;100956.63;6247498;22;20324;-78
2021/12/25 22:35:57;;;;;;;0.80;0.80;;;;;;;-2.58;100.00;100953.06;6247866;23;20034;-78
2021/12/25 22:38:22;;;;;;;1.38;1.20;;;;;;;-2.61;100.00;100957.34;6247901;22;20324;-77
2021/12/25 22:40:49;;;;;;;0.95;0.95;;;;;;;-2.54;100.00;100972.19;6247463;22;20302;-77
2021/12/25 22:43:20;;;;;;;0.98;0.98;;;;;;;-2.47;100.00;100969.66;6247879;22;20004;-77
2021/12/25 22:45:45;;;;;;;1.00;1.00;;;;;;;-2.54;100.00;100965.28;6248107;22;19996;-76
2021/12/25 22:48:10;;;;;;;0.90;0.90;;;;;;;-2.46;100.00;100963.59;6246965;23;20102;-76
2021/12/25 22:50:39;;;;;;;0.90;0.90;;;;;;;-2.48;100.00;100967.06;6247456;22;20004;-76
2021/12/25 22:53:06;;;;;;;1.10;1.10;;;;;;;-2.43;100.00;100968.88;6247899;22;20004;-76
2021/12/25 22:55:32;;;;;;;0.90;0.90;;;;;;;-2.45;100.00;100961.88;6247133;23;20062;-76
2021/12/25 22:57:58;;;;;;;0.90;0.90;;;;;;;-2.43;100.00;100962.78;6248013;22;19995;-76
2021/12/25 23:00:29;;;;;;;0.98;0.98;;;;;;;-2.63;100.00;100974.69;6248041;22;20000;-76
2021/12/25 23:02:56;;;;;;;0.90;0.90;;;;;;;-2.64;100.00;100966.00;6248062;22;20024;-78
2021/12/25 23:05:30;;;;;;;2.70;2.50;;;;;;;-2.58;100.00;100980.78;6247909;22;20000;-76
2021/12/25 23:07:57;;;;;;;0.90;0.90;;;;;;;-2.50;100.00;100977.44;6247997;22;20432;-76
2021/12/25 23:10:23;;;;;;;0.98;0.98;;;;;;;-2.60;100.00;100978.16;6248138;22;20008;-76
2021/12/25 23:12:48;;;;;;;1.42;1.33;;;;;;;-2.51;100.00;100967.91;6248256;22;20008;-77
2021/12/25 23:15:14;;;;;;;0.93;0.93;;;;;;;-2.44;100.00;100963.66;6247237;23;20084;-76
2021/12/25 23:17:39;;;;;;;1.00;1.00;;;;;;;-2.57;100.00;100965.22;6218050;23;20004;-77
2021/12/25 23:20:07;;;;;;;0.80;0.80;;;;;;;-2.56;100.00;100959.16;6218524;23;20286;-76
2021/12/25 23:22:33;;;;;;;1.00;1.00;;;;;;;-2.87;100.00;100949.25;6217212;23;20009;-76
2021/12/25 23:24:59;;;;;;;0.82;0.82;;;;;;;-2.79;100.00;100952.84;6217527;23;20016;-77
2021/12/25 23:27:24;;;;;;;1.00;1.00;;;;;;;-2.91;100.00;100939.66;6216455;23;20055;-77
2021/12/25 23:29:49;;;;;;;0.80;0.80;;;;;;;-2.90;100.00;100943.13;6217509;23;20004;-77
2021/12/25 23:32:15;;;;;;;0.80;0.80;;;;;;;-2.90;100.00;100937.94;6217769;23;20080;-78
2021/12/25 23:34:40;;;;;;;1.00;1.00;;;;;;;-2.95;100.00;100942.22;6217675;23;20000;-78
2021/12/25 23:37:06;;;;;;;1.00;1.00;;;;;;;-3.03;100.00;100930.84;6217562;23;20004;-78
2021/12/25 23:39:32;;;;;;;0.90;0.90;;;;;;;-3.06;100.00;100925.59;6218345;23;20314;-78
2021/12/25 23:42:01;;;;;;;0.90;0.90;;;;;;;-3.13;100.00;100920.34;6216825;23;20008;-77
2021/12/25 23:44:26;;;;;;;1.00;1.00;;;;;;;-2.98;100.00;100924.88;6218002;23;20020;-78
2021/12/25 23:46:52;;;;;;;0.80;0.80;;;;;;;-3.02;100.00;100917.88;6217641;23;20005;-78
2021/12/25 23:49:17;;;;;;;0.90;0.90;;;;;;;-3.23;100.00;100917.59;6216961;23;20072;-77
2021/12/25 23:51:43;;;;;;;1.30;1.30;;;;;;;-3.34;100.00;100908.78;6217696;23;20514;-77
2021/12/25 23:54:09;;;;;;;1.48;1.38;;;;;;;-3.42;100.00;100911.25;6217609;23;20008;-77
2021/12/25 23:56:35;;;;;;;1.50;1.40;;;;;;;-3.50;100.00;100901.63;6218026;23;20027;-77
2021/12/25 23:59:02;;;;;;;1.42;1.33;;;;;;;-3.57;100.00;100905.84;6217413;23;20005;-77
